地図

経路データ

SID SEASON NUMBER BASIN SUBBASIN NAME ISO_TIME NATURE LAT LON WMO_WIND WMO_PRES WMO_AGENCY TRACK_TYPE DIST2LAND LANDFALL IFLAG USA_AGENCY USA_ATCF_ID USA_LAT USA_LON USA_RECORD USA_STATUS USA_WIND USA_PRES USA_SSHS USA_R34_NE USA_R34_SE USA_R34_SW USA_R34_NW USA_R50_NE USA_R50_SE USA_R50_SW USA_R50_NW USA_R64_NE USA_R64_SE USA_R64_SW USA_R64_NW USA_POCI USA_ROCI USA_RMW USA_EYE TOKYO_LAT TOKYO_LON TOKYO_GRADE TOKYO_WIND TOKYO_PRES TOKYO_R50_DIR TOKYO_R50_LONG TOKYO_R50_SHORT TOKYO_R30_DIR TOKYO_R30_LONG TOKYO_R30_SHORT TOKYO_LAND CMA_LAT CMA_LON CMA_CAT CMA_WIND CMA_PRES HKO_LAT HKO_LON HKO_CAT HKO_WIND HKO_PRES NEWDELHI_LAT NEWDELHI_LON NEWDELHI_GRADE NEWDELHI_WIND NEWDELHI_PRES NEWDELHI_CI NEWDELHI_DP NEWDELHI_POCI REUNION_LAT REUNION_LON REUNION_TYPE REUNION_WIND REUNION_PRES REUNION_TNUM REUNION_CI REUNION_RMW REUNION_R34_NE REUNION_R34_SE REUNION_R34_SW REUNION_R34_NW REUNION_R50_NE REUNION_R50_SE REUNION_R50_SW REUNION_R50_NW REUNION_R64_NE REUNION_R64_SE REUNION_R64_SW REUNION_R64_NW BOM_LAT BOM_LON BOM_TYPE BOM_WIND BOM_PRES BOM_TNUM BOM_CI BOM_RMW BOM_R34_NE BOM_R34_SE BOM_R34_SW BOM_R34_NW BOM_R50_NE BOM_R50_SE BOM_R50_SW BOM_R50_NW BOM_R64_NE BOM_R64_SE BOM_R64_SW BOM_R64_NW BOM_ROCI BOM_POCI BOM_EYE BOM_POS_METHOD BOM_PRES_METHOD NADI_LAT NADI_LON NADI_CAT NADI_WIND NADI_PRES WELLINGTON_LAT WELLINGTON_LON WELLINGTON_WIND WELLINGTON_PRES DS824_LAT DS824_LON DS824_STAGE DS824_WIND DS824_PRES TD9636_LAT TD9636_LON TD9636_STAGE TD9636_WIND TD9636_PRES TD9635_LAT TD9635_LON TD9635_WIND TD9635_PRES TD9635_ROCI NEUMANN_LAT NEUMANN_LON NEUMANN_CLASS NEUMANN_WIND NEUMANN_PRES MLC_LAT MLC_LON MLC_CLASS MLC_WIND MLC_PRES USA_GUST BOM_GUST BOM_GUST_PER REUNION_GUST REUNION_GUST_PER USA_SEAHGT USA_SEARAD_NE USA_SEARAD_SE USA_SEARAD_SW USA_SEARAD_NW STORM_SPEED STORM_DIR
1924170N18275 1924 14 NA CS NOT_NAMED 1924-06-18 00:00:00 TS 17.6000 -85.2000 35 hurdat_atl main 190 190 O_____________ hurdat_atl AL011924 17.6000 -85.2000 TS 35 0 14 279
1924170N18275 1924 14 NA CS NOT_NAMED 1924-06-18 03:00:00 TS 17.7005 -85.8999 main 201 134 P_____________ AL011924 17.7005 -85.8999 TS 37 0 13 279
1924170N18275 1924 14 NA CS NOT_NAMED 1924-06-18 06:00:00 TS 17.8000 -86.6000 40 hurdat_atl main 134 62 O_____________ hurdat_atl AL011924 17.8000 -86.6000 TS 40 0 13 279
1924170N18275 1924 14 NA CS NOT_NAMED 1924-06-18 09:00:00 TS 17.8997 -87.3001 main 62 15 P_____________ AL011924 17.8997 -87.3001 TS 40 0 13 279
1924170N18275 1924 14 NA CS NOT_NAMED 1924-06-18 12:00:00 TS 18.0000 -88.0000 40 hurdat_atl main 15 0 O_____________ hurdat_atl AL011924 18.0000 -88.0000 TS 40 0 14 278
1924170N18275 1924 14 NA NA NOT_NAMED 1924-06-18 15:00:00 TS 18.0998 -88.7076 main 0 0 P_____________ AL011924 18.0998 -88.7076 TS 37 0 13 279
1924170N18275 1924 14 NA NA NOT_NAMED 1924-06-18 18:00:00 TS 18.2000 -89.4000 35 hurdat_atl main 0 0 O_____________ hurdat_atl AL011924 18.2000 -89.4000 TS 35 0 13 278
1924170N18275 1924 14 NA NA NOT_NAMED 1924-06-18 21:00:00 TS 18.2923 -90.0651 main 0 0 P_____________ AL011924 18.2923 -90.0651 TS 32 -1 13 279
1924170N18275 1924 14 NA NA NOT_NAMED 1924-06-19 00:00:00 TS 18.4000 -90.7000 30 hurdat_atl main 0 0 O_____________ hurdat_atl AL011924 18.4000 -90.7000 TD 30 -1 12 282
1924170N18275 1924 14 NA NA NOT_NAMED 1924-06-19 03:00:00 TS 18.5423 -91.3150 main 0 0 P_____________ AL011924 18.5423 -91.3150 TD 30 -1 12 285
1924170N18275 1924 14 NA GM NOT_NAMED 1924-06-19 06:00:00 TS 18.7000 -91.9000 30 hurdat_atl main 11 11 O_____________ hurdat_atl AL011924 18.7000 -91.9000 TD 30 -1 11 285
1924170N18275 1924 14 NA GM NOT_NAMED 1924-06-19 09:00:00 TS 18.8423 -92.4652 main 22 22 P_____________ AL011924 18.8423 -92.4652 TD 32 -1 11 286
1924170N18275 1924 14 NA GM NOT_NAMED 1924-06-19 12:00:00 TS 19.0000 -93.0000 35 hurdat_atl main 54 54 O_____________ hurdat_atl AL011924 19.0000 -93.0000 TS 35 0 11 289
1924170N18275 1924 14 NA GM NOT_NAMED 1924-06-19 15:00:00 TS 19.1849 -93.5151 main 100 100 P_____________ AL011924 19.1849 -93.5151 TS 37 0 10 293
1924170N18275 1924 14 NA GM NOT_NAMED 1924-06-19 18:00:00 TS 19.4000 -94.0000 40 hurdat_atl main 123 123 O_____________ hurdat_atl AL011924 19.4000 -94.0000 TS 40 0 10 297
1924170N18275 1924 14 NA GM NOT_NAMED 1924-06-19 21:00:00 TS 19.6424 -94.4651 main 123 123 P_____________ AL011924 19.6424 -94.4651 TS 40 0 10 301
1924170N18275 1924 14 NA GM NOT_NAMED 1924-06-20 00:00:00 TS 19.9000 -94.9000 40 hurdat_atl main 137 117 O_____________ hurdat_atl AL011924 19.9000 -94.9000 TS 40 0 9 302
1924170N18275 1924 14 NA GM NOT_NAMED 1924-06-20 03:00:00 TS 20.1424 -95.3077 main 117 92 P_____________ AL011924 20.1424 -95.3077 TS 40 0 9 304
1924170N18275 1924 14 NA GM NOT_NAMED 1924-06-20 06:00:00 TS 20.4000 -95.7000 40 hurdat_atl main 92 83 O_____________ hurdat_atl AL011924 20.4000 -95.7000 TS 40 0 9 306
1924170N18275 1924 14 NA GM NOT_NAMED 1924-06-20 09:00:00 TS 20.6850 -96.1076 main 83 76 P_____________ AL011924 20.6850 -96.1076 TS 40 0 10 309
1924170N18275 1924 14 NA GM NOT_NAMED 1924-06-20 12:00:00 TS 21.0000 -96.5000 40 hurdat_atl main 76 61 O_____________ hurdat_atl AL011924 21.0000 -96.5000 TS 40 0 10 313
1924170N18275 1924 14 NA GM NOT_NAMED 1924-06-20 15:00:00 TS 21.3349 -96.8652 main 51 15 P_____________ AL011924 21.3349 -96.8652 TS 40 0 10 317
1924170N18275 1924 14 NA GM NOT_NAMED 1924-06-20 18:00:00 TS 21.7000 -97.2000 40 hurdat_atl main 15 15 O_____________ hurdat_atl AL011924 21.7000 -97.2000 TS 40 0 10 321
1924170N18275 1924 14 NA GM NOT_NAMED 1924-06-20 21:00:00 TS 22.0774 -97.5152 main 23 0 P_____________ AL011924 22.0774 -97.5152 TS 37 0 10 325
1924170N18275 1924 14 NA GM NOT_NAMED 1924-06-21 00:00:00 TS 22.5000 -97.8000 35 hurdat_atl main 0 0 O_____________ hurdat_atl AL011924 22.5000 -97.8000 TS 35 0 10 331
1924170N18275 1924 14 NA NA NOT_NAMED 1924-06-21 03:00:00 TS 22.9826 -98.0571 main 0 0 P_____________ AL011924 22.9826 -98.0571 TS 32 -1 11 335
1924170N18275 1924 14 NA NA NOT_NAMED 1924-06-21 06:00:00 TS 23.5000 -98.3000 30 hurdat_atl main 0 O_____________ hurdat_atl AL011924 23.5000 -98.3000 TD 30 -1 11 337

IBTrACS Databaseについて

本データベースは、米国NOAAが公開する1842年以降の世界の熱帯低気圧のベストトラックデータアーカイブInternational Best Track Archive for Climate Stewardship (IBTrACS)を、ウェブで閲覧しやすい形式に変換したものです。

最終更新日:2021-11-26